Aviation Digital Data Service (ADDS)

Output produced by METARs form (1424 UTC 13 December 2019)
found at http://www.aviationweather.gov/metar/data/
 
METAR text: EGGW 131420Z AUTO 25015KT 9999 BKN030 BKN037 07/03 Q0982
Conditions at: EGGW (LUTON AIRPORT , GB) observed 1420 UTC 13 December 2019
Temperature: 7.0°C (45°F)
Dewpoint: 3.0°C (37°F) [RH = 76%]
Pressure (altimeter): 29.00 inches Hg (982.0 mb)
Winds: from the WSW (250 degrees) at 17 MPH (15 knots; 7.7 m/s)
Visibility: 6 or more miles (10+ km)
Ceiling: 3000 feet AGL
Clouds: broken clouds at 3000 feet AGL
broken clouds at 3700 feet AGL
Weather: no significant weather observed at this time

METAR text: EGGW 131350Z 26016KT 9999 SCT031 07/04 Q0981
Conditions at: EGGW (LUTON AIRPORT , GB) observed 1350 UTC 13 December 2019
Temperature: 7.0°C (45°F)
Dewpoint: 4.0°C (39°F) [RH = 81%]
Pressure (altimeter): 28.97 inches Hg (981.0 mb)
Winds: from the W (260 degrees) at 18 MPH (16 knots; 8.2 m/s)
Visibility: 6 or more miles (10+ km)
Ceiling: at least 12,000 feet AGL
Clouds: scattered clouds at 3100 feet AGL
Weather: no significant weather observed at this time

METAR text: EGGW 131320Z 27019KT 9999 SCT028 07/03 Q0981
Conditions at: EGGW (LUTON AIRPORT , GB) observed 1320 UTC 13 December 2019
Temperature: 7.0°C (45°F)
Dewpoint: 3.0°C (37°F) [RH = 76%]
Pressure (altimeter): 28.97 inches Hg (981.0 mb)
Winds: from the W (270 degrees) at 22 MPH (19 knots; 9.8 m/s)
Visibility: 6 or more miles (10+ km)
Ceiling: at least 12,000 feet AGL
Clouds: scattered clouds at 2800 feet AGL
Weather: no significant weather observed at this time

METAR text: EGGW 131250Z 27021G34KT 9999 SCT027 07/03 Q0981
Conditions at: EGGW (LUTON AIRPORT , GB) observed 1250 UTC 13 December 2019
Temperature: 7.0°C (45°F)
Dewpoint: 3.0°C (37°F) [RH = 76%]
Pressure (altimeter): 28.97 inches Hg (981.0 mb)
Winds: from the W (270 degrees) at 24 MPH (21 knots; 10.8 m/s)
gusting to 39 MPH (34 knots; 17.5 m/s)
Visibility: 6 or more miles (10+ km)
Ceiling: at least 12,000 feet AGL
Clouds: scattered clouds at 2700 feet AGL
Weather: no significant weather observed at this time

METAR text: EGGW 131220Z AUTO 27019KT 9999 BKN027 07/04 Q0980
Conditions at: EGGW (LUTON AIRPORT , GB) observed 1220 UTC 13 December 2019
Temperature: 7.0°C (45°F)
Dewpoint: 4.0°C (39°F) [RH = 81%]
Pressure (altimeter): 28.94 inches Hg (980.0 mb)
Winds: from the W (270 degrees) at 22 MPH (19 knots; 9.8 m/s)
Visibility: 6 or more miles (10+ km)
Ceiling: 2700 feet AGL
Clouds: broken clouds at 2700 feet AGL
Weather: no significant weather observed at this time

METAR text: EGGW 131150Z AUTO 28021KT 9999 BKN027 07/04 Q0980
Conditions at: EGGW (LUTON AIRPORT , GB) observed 1150 UTC 13 December 2019
Temperature: 7.0°C (45°F)
Dewpoint: 4.0°C (39°F) [RH = 81%]
Pressure (altimeter): 28.94 inches Hg (980.0 mb)
Winds: from the W (280 degrees) at 24 MPH (21 knots; 10.8 m/s)
Visibility: 6 or more miles (10+ km)
Ceiling: 2700 feet AGL
Clouds: broken clouds at 2700 feet AGL
Weather: no significant weather observed at this time

METAR text: EGGW 131120Z AUTO 27018KT 9999 OVC024 06/04 Q0980
Conditions at: EGGW (LUTON AIRPORT , GB) observed 1120 UTC 13 December 2019
Temperature: 6.0°C (43°F)
Dewpoint: 4.0°C (39°F) [RH = 87%]
Pressure (altimeter): 28.94 inches Hg (980.0 mb)
Winds: from the W (270 degrees) at 21 MPH (18 knots; 9.3 m/s)
Visibility: 6 or more miles (10+ km)
Ceiling: 2400 feet AGL
Clouds: overcast cloud deck at 2400 feet AGL
Weather: no significant weather observed at this time

METAR text: EGGW 131050Z AUTO 27017KT 9999 OVC023 06/04 Q0980
Conditions at: EGGW (LUTON AIRPORT , GB) observed 1050 UTC 13 December 2019
Temperature: 6.0°C (43°F)
Dewpoint: 4.0°C (39°F) [RH = 87%]
Pressure (altimeter): 28.94 inches Hg (980.0 mb)
Winds: from the W (270 degrees) at 20 MPH (17 knots; 8.7 m/s)
Visibility: 6 or more miles (10+ km)
Ceiling: 2300 feet AGL
Clouds: overcast cloud deck at 2300 feet AGL
Weather: no significant weather observed at this time

METAR text: EGGW 131020Z AUTO 27018KT 9999 OVC023 06/04 Q0979
Conditions at: EGGW (LUTON AIRPORT , GB) observed 1020 UTC 13 December 2019
Temperature: 6.0°C (43°F)
Dewpoint: 4.0°C (39°F) [RH = 87%]
Pressure (altimeter): 28.91 inches Hg (979.0 mb)
Winds: from the W (270 degrees) at 21 MPH (18 knots; 9.3 m/s)
Visibility: 6 or more miles (10+ km)
Ceiling: 2300 feet AGL
Clouds: overcast cloud deck at 2300 feet AGL
Weather: no significant weather observed at this time

METAR text: EGGW 130950Z AUTO 28018KT 9999 BKN023 OVC044 06/04 Q0979
Conditions at: EGGW (LUTON AIRPORT , GB) observed 0950 UTC 13 December 2019
Temperature: 6.0°C (43°F)
Dewpoint: 4.0°C (39°F) [RH = 87%]
Pressure (altimeter): 28.91 inches Hg (979.0 mb)
Winds: from the W (280 degrees) at 21 MPH (18 knots; 9.3 m/s)
Visibility: 6 or more miles (10+ km)
Ceiling: 2300 feet AGL
Clouds: broken clouds at 2300 feet AGL
overcast cloud deck at 4400 feet AGL
Weather: no significant weather observed at this time

METAR text: EGGW 130920Z AUTO 28017KT 9999 BKN024 OVC030 06/04 Q0978
Conditions at: EGGW (LUTON AIRPORT , GB) observed 0920 UTC 13 December 2019
Temperature: 6.0°C (43°F)
Dewpoint: 4.0°C (39°F) [RH = 87%]
Pressure (altimeter): 28.88 inches Hg (978.0 mb)
Winds: from the W (280 degrees) at 20 MPH (17 knots; 8.7 m/s)
Visibility: 6 or more miles (10+ km)
Ceiling: 2400 feet AGL
Clouds: broken clouds at 2400 feet AGL
overcast cloud deck at 3000 feet AGL
Weather: no significant weather observed at this time

METAR text: EGGW 130850Z AUTO 28017KT 9999 SCT023 OVC034 06/03 Q0978
Conditions at: EGGW (LUTON AIRPORT , GB) observed 0850 UTC 13 December 2019
Temperature: 6.0°C (43°F)
Dewpoint: 3.0°C (37°F) [RH = 81%]
Pressure (altimeter): 28.88 inches Hg (978.0 mb)
Winds: from the W (280 degrees) at 20 MPH (17 knots; 8.7 m/s)
Visibility: 6 or more miles (10+ km)
Ceiling: 3400 feet AGL
Clouds: scattered clouds at 2300 feet AGL
overcast cloud deck at 3400 feet AGL
Weather: no significant weather observed at this time

METAR text: EGGW 130820Z AUTO 28016KT 9999 BKN022 OVC029 05/04 Q0977
Conditions at: EGGW (LUTON AIRPORT , GB) observed 0820 UTC 13 December 2019
Temperature: 5.0°C (41°F)
Dewpoint: 4.0°C (39°F) [RH = 93%]
Pressure (altimeter): 28.85 inches Hg (977.0 mb)
Winds: from the W (280 degrees) at 18 MPH (16 knots; 8.2 m/s)
Visibility: 6 or more miles (10+ km)
Ceiling: 2200 feet AGL
Clouds: broken clouds at 2200 feet AGL
overcast cloud deck at 2900 feet AGL
Weather: no significant weather observed at this time

METAR text: EGGW 130750Z AUTO 28017KT 9999 OVC029 05/04 Q0976
Conditions at: EGGW (LUTON AIRPORT , GB) observed 0750 UTC 13 December 2019
Temperature: 5.0°C (41°F)
Dewpoint: 4.0°C (39°F) [RH = 93%]
Pressure (altimeter): 28.82 inches Hg (976.0 mb)
Winds: from the W (280 degrees) at 20 MPH (17 knots; 8.7 m/s)
Visibility: 6 or more miles (10+ km)
Ceiling: 2900 feet AGL
Clouds: overcast cloud deck at 2900 feet AGL
Weather: no significant weather observed at this time

METAR text: EGGW 130720Z AUTO 28016KT 9999 -RA FEW021 BKN027 OVC038 05/04 Q0975
Conditions at: EGGW (LUTON AIRPORT , GB) observed 0720 UTC 13 December 2019
Temperature: 5.0°C (41°F)
Dewpoint: 4.0°C (39°F) [RH = 93%]
Pressure (altimeter): 28.79 inches Hg (975.0 mb)
Winds: from the W (280 degrees) at 18 MPH (16 knots; 8.2 m/s)
Visibility: 6 or more miles (10+ km)
Ceiling: 2700 feet AGL
Clouds: few clouds at 2100 feet AGL
broken clouds at 2700 feet AGL
overcast cloud deck at 3800 feet AGL
Weather: -RA  (light rain)

METAR text: EGGW 130650Z AUTO 29017KT 9999 -RA SCT014 OVC032 05/04 Q0975
Conditions at: EGGW (LUTON AIRPORT , GB) observed 0650 UTC 13 December 2019
Temperature: 5.0°C (41°F)
Dewpoint: 4.0°C (39°F) [RH = 93%]
Pressure (altimeter): 28.79 inches Hg (975.0 mb)
Winds: from the WNW (290 degrees) at 20 MPH (17 knots; 8.7 m/s)
Visibility: 6 or more miles (10+ km)
Ceiling: 3200 feet AGL
Clouds: scattered clouds at 1400 feet AGL
overcast cloud deck at 3200 feet AGL
Weather: -RA  (light rain)

METAR text: EGGW 130620Z AUTO 29019KT 9999 -RA BKN012 BKN017 OVC035 05/04 Q0974
Conditions at: EGGW (LUTON AIRPORT , GB) observed 0620 UTC 13 December 2019
Temperature: 5.0°C (41°F)
Dewpoint: 4.0°C (39°F) [RH = 93%]
Pressure (altimeter): 28.76 inches Hg (974.0 mb)
Winds: from the WNW (290 degrees) at 22 MPH (19 knots; 9.8 m/s)
Visibility: 6 or more miles (10+ km)
Ceiling: 1200 feet AGL
Clouds: broken clouds at 1200 feet AGL
broken clouds at 1700 feet AGL
overcast cloud deck at 3500 feet AGL
Weather: -RA  (light rain)

METAR text: EGGW 130550Z AUTO 29016G26KT 9999 -RA BKN010/// OVC014/// //////TCU 05/04 Q0973
Conditions at: EGGW (LUTON AIRPORT , GB) observed 0550 UTC 13 December 2019
Temperature: 5.0°C (41°F)
Dewpoint: 4.0°C (39°F) [RH = 93%]
Pressure (altimeter): 28.73 inches Hg (973.0 mb)
Winds: from the WNW (290 degrees) at 18 MPH (16 knots; 8.2 m/s)
gusting to 30 MPH (26 knots; 13.4 m/s)
Visibility: 6 or more miles (10+ km)
Ceiling: 1000 feet AGL
Clouds: broken clouds at 1000 feet AGL
overcast cloud deck at 1400 feet AGL
Weather: -RA  (light rain)

METAR text: EGGW 130520Z AUTO 29016KT 9999 -RA BKN010/// OVC016/// //////TCU 05/04 Q0973
Conditions at: EGGW (LUTON AIRPORT , GB) observed 0520 UTC 13 December 2019
Temperature: 5.0°C (41°F)
Dewpoint: 4.0°C (39°F) [RH = 93%]
Pressure (altimeter): 28.73 inches Hg (973.0 mb)
Winds: from the WNW (290 degrees) at 18 MPH (16 knots; 8.2 m/s)
Visibility: 6 or more miles (10+ km)
Ceiling: 1000 feet AGL
Clouds: broken clouds at 1000 feet AGL
overcast cloud deck at 1600 feet AGL
Weather: -RA  (light rain)

METAR text: EGGW 130450Z AUTO 29017KT 9999 -RA BKN011 OVC016 05/04 Q0972
Conditions at: EGGW (LUTON AIRPORT , GB) observed 0450 UTC 13 December 2019
Temperature: 5.0°C (41°F)
Dewpoint: 4.0°C (39°F) [RH = 93%]
Pressure (altimeter): 28.70 inches Hg (972.0 mb)
Winds: from the WNW (290 degrees) at 20 MPH (17 knots; 8.7 m/s)
Visibility: 6 or more miles (10+ km)
Ceiling: 1100 feet AGL
Clouds: broken clouds at 1100 feet AGL
overcast cloud deck at 1600 feet AGL
Weather: -RA  (light rain)

METAR text: EGGW 130420Z AUTO 29017KT 9999 -RA OVC011 05/04 Q0971
Conditions at: EGGW (LUTON AIRPORT , GB) observed 0420 UTC 13 December 2019
Temperature: 5.0°C (41°F)
Dewpoint: 4.0°C (39°F) [RH = 93%]
Pressure (altimeter): 28.67 inches Hg (971.0 mb)
Winds: from the WNW (290 degrees) at 20 MPH (17 knots; 8.7 m/s)
Visibility: 6 or more miles (10+ km)
Ceiling: 1100 feet AGL
Clouds: overcast cloud deck at 1100 feet AGL
Weather: -RA  (light rain)

METAR text: EGGW 130350Z AUTO 28018KT 9999 OVC012 05/04 Q0971
Conditions at: EGGW (LUTON AIRPORT , GB) observed 0350 UTC 13 December 2019
Temperature: 5.0°C (41°F)
Dewpoint: 4.0°C (39°F) [RH = 93%]
Pressure (altimeter): 28.67 inches Hg (971.0 mb)
Winds: from the W (280 degrees) at 21 MPH (18 knots; 9.3 m/s)
Visibility: 6 or more miles (10+ km)
Ceiling: 1200 feet AGL
Clouds: overcast cloud deck at 1200 feet AGL
Weather: no significant weather observed at this time

METAR text: EGGW 130320Z AUTO 28017KT 9999 -RA BKN011 OVC018 05/05 Q0971
Conditions at: EGGW (LUTON AIRPORT , GB) observed 0320 UTC 13 December 2019
Temperature: 5.0°C (41°F)
Dewpoint: 5.0°C (41°F) [RH = 100%]
Pressure (altimeter): 28.67 inches Hg (971.0 mb)
Winds: from the W (280 degrees) at 20 MPH (17 knots; 8.7 m/s)
Visibility: 6 or more miles (10+ km)
Ceiling: 1100 feet AGL
Clouds: broken clouds at 1100 feet AGL
overcast cloud deck at 1800 feet AGL
Weather: -RA  (light rain)

METAR text: EGGW 130250Z AUTO 28013KT 9999 -RA BKN006/// OVC036/// //////TCU 05/05 Q0970
Conditions at: EGGW (LUTON AIRPORT , GB) observed 0250 UTC 13 December 2019
Temperature: 5.0°C (41°F)
Dewpoint: 5.0°C (41°F) [RH = 100%]
Pressure (altimeter): 28.64 inches Hg (970.0 mb)
Winds: from the W (280 degrees) at 15 MPH (13 knots; 6.7 m/s)
Visibility: 6 or more miles (10+ km)
Ceiling: 600 feet AGL
Clouds: broken clouds at 600 feet AGL
overcast cloud deck at 3600 feet AGL
Weather: -RA  (light rain)

METAR text: EGGW 130220Z AUTO 29011KT 9999 -RA OVC004/// //////TCU 05/05 Q0970
Conditions at: EGGW (LUTON AIRPORT , GB) observed 0220 UTC 13 December 2019
Temperature: 5.0°C (41°F)
Dewpoint: 5.0°C (41°F) [RH = 100%]
Pressure (altimeter): 28.64 inches Hg (970.0 mb)
Winds: from the WNW (290 degrees) at 13 MPH (11 knots; 5.7 m/s)
Visibility: 6 or more miles (10+ km)
Ceiling: 400 feet AGL
Clouds: overcast cloud deck at 400 feet AGL
Weather: -RA  (light rain)

METAR text: EGGW 130150Z AUTO 29011KT 9999 -RA BKN006/// OVC009/// //////TCU 05/05 Q0970
Conditions at: EGGW (LUTON AIRPORT , GB) observed 0150 UTC 13 December 2019
Temperature: 5.0°C (41°F)
Dewpoint: 5.0°C (41°F) [RH = 100%]
Pressure (altimeter): 28.64 inches Hg (970.0 mb)
Winds: from the WNW (290 degrees) at 13 MPH (11 knots; 5.7 m/s)
Visibility: 6 or more miles (10+ km)
Ceiling: 600 feet AGL
Clouds: broken clouds at 600 feet AGL
overcast cloud deck at 900 feet AGL
Weather: -RA  (light rain)

METAR text: EGGW 130120Z AUTO 25006KT 9999 -RA BKN008/// BKN011/// OVC036/// //////TCU 06/05 Q0970
Conditions at: EGGW (LUTON AIRPORT , GB) observed 0120 UTC 13 December 2019
Temperature: 6.0°C (43°F)
Dewpoint: 5.0°C (41°F) [RH = 93%]
Pressure (altimeter): 28.64 inches Hg (970.0 mb)
Winds: from the WSW (250 degrees) at 7 MPH (6 knots; 3.1 m/s)
Visibility: 6 or more miles (10+ km)
Ceiling: 800 feet AGL
Clouds: broken clouds at 800 feet AGL
broken clouds at 1100 feet AGL
overcast cloud deck at 3600 feet AGL
Weather: -RA  (light rain)

METAR text: EGGW 130050Z AUTO 26006KT 9999 -RA FEW009 SCT013 BKN027 06/05 Q0970
Conditions at: EGGW (LUTON AIRPORT , GB) observed 0050 UTC 13 December 2019
Temperature: 6.0°C (43°F)
Dewpoint: 5.0°C (41°F) [RH = 93%]
Pressure (altimeter): 28.64 inches Hg (970.0 mb)
Winds: from the W (260 degrees) at 7 MPH (6 knots; 3.1 m/s)
Visibility: 6 or more miles (10+ km)
Ceiling: 2700 feet AGL
Clouds: few clouds at 900 feet AGL
scattered clouds at 1300 feet AGL
broken clouds at 2700 feet AGL
Weather: -RA  (light rain)

METAR text: EGGW 130020Z AUTO 22006KT 9999 -RA BKN007/// BKN013/// OVC044/// //////TCU 06/06 Q0970
Conditions at: EGGW (LUTON AIRPORT , GB) observed 0020 UTC 13 December 2019
Temperature: 6.0°C (43°F)
Dewpoint: 6.0°C (43°F) [RH = 100%]
Pressure (altimeter): 28.64 inches Hg (970.0 mb)
Winds: from the SW (220 degrees) at 7 MPH (6 knots; 3.1 m/s)
Visibility: 6 or more miles (10+ km)
Ceiling: 700 feet AGL
Clouds: broken clouds at 700 feet AGL
broken clouds at 1300 feet AGL
overcast cloud deck at 4400 feet AGL
Weather: -RA  (light rain)

METAR text: EGGW 122350Z AUTO 21007KT 9999 BKN005/// OVC012/// //////TCU 06/06 Q0971 REDZ
Conditions at: EGGW (LUTON AIRPORT , GB) observed 2350 UTC 12 December 2019
Temperature: 6.0°C (43°F)
Dewpoint: 6.0°C (43°F) [RH = 100%]
Pressure (altimeter): 28.67 inches Hg (971.0 mb)
Winds: from the SSW (210 degrees) at 8 MPH (7 knots; 3.6 m/s)
Visibility: 6 or more miles (10+ km)
Ceiling: 500 feet AGL
Clouds: broken clouds at 500 feet AGL
overcast cloud deck at 1200 feet AGL
Weather: no significant weather observed at this time

METAR text: EGGW 122320Z AUTO 20007KT 5000 -RADZ OVC005 07/06 Q0972
Conditions at: EGGW (LUTON AIRPORT , GB) observed 2320 UTC 12 December 2019
Temperature: 7.0°C (45°F)
Dewpoint: 6.0°C (43°F) [RH = 93%]
Pressure (altimeter): 28.70 inches Hg (972.0 mb)
Winds: from the SSW (200 degrees) at 8 MPH (7 knots; 3.6 m/s)
Visibility: 3 miles ( 5 km)
Ceiling: 500 feet AGL
Clouds: overcast cloud deck at 500 feet AGL
Weather: -RA -DZ  (light rain, light drizzle)

METAR text: EGGW 122250Z AUTO 20007KT 9999 BKN008 OVC036 07/06 Q0972
Conditions at: EGGW (LUTON AIRPORT , GB) observed 2250 UTC 12 December 2019
Temperature: 7.0°C (45°F)
Dewpoint: 6.0°C (43°F) [RH = 93%]
Pressure (altimeter): 28.70 inches Hg (972.0 mb)
Winds: from the SSW (200 degrees) at 8 MPH (7 knots; 3.6 m/s)
Visibility: 6 or more miles (10+ km)
Ceiling: 800 feet AGL
Clouds: broken clouds at 800 feet AGL
overcast cloud deck at 3600 feet AGL
Weather: no significant weather observed at this time

METAR text: EGGW 122220Z AUTO 20007KT 9999 BKN008 BKN014 OVC032 07/06 Q0973
Conditions at: EGGW (LUTON AIRPORT , GB) observed 2220 UTC 12 December 2019
Temperature: 7.0°C (45°F)
Dewpoint: 6.0°C (43°F) [RH = 93%]
Pressure (altimeter): 28.73 inches Hg (973.0 mb)
Winds: from the SSW (200 degrees) at 8 MPH (7 knots; 3.6 m/s)
Visibility: 6 or more miles (10+ km)
Ceiling: 800 feet AGL
Clouds: broken clouds at 800 feet AGL
broken clouds at 1400 feet AGL
overcast cloud deck at 3200 feet AGL
Weather: no significant weather observed at this time

METAR text: EGGW 122150Z AUTO 22010KT 9999 BKN013 BKN036 07/06 Q0973
Conditions at: EGGW (LUTON AIRPORT , GB) observed 2150 UTC 12 December 2019
Temperature: 7.0°C (45°F)
Dewpoint: 6.0°C (43°F) [RH = 93%]
Pressure (altimeter): 28.73 inches Hg (973.0 mb)
Winds: from the SW (220 degrees) at 12 MPH (10 knots; 5.1 m/s)
Visibility: 6 or more miles (10+ km)
Ceiling: 1300 feet AGL
Clouds: broken clouds at 1300 feet AGL
broken clouds at 3600 feet AGL
Weather: no significant weather observed at this time

METAR text: EGGW 122120Z AUTO 23009KT 9999 BKN010 OVC041 07/06 Q0974
Conditions at: EGGW (LUTON AIRPORT , GB) observed 2120 UTC 12 December 2019
Temperature: 7.0°C (45°F)
Dewpoint: 6.0°C (43°F) [RH = 93%]
Pressure (altimeter): 28.76 inches Hg (974.0 mb)
Winds: from the SW (230 degrees) at 10 MPH (9 knots; 4.6 m/s)
Visibility: 6 or more miles (10+ km)
Ceiling: 1000 feet AGL
Clouds: broken clouds at 1000 feet AGL
overcast cloud deck at 4100 feet AGL
Weather: no significant weather observed at this time

METAR text: EGGW 122050Z AUTO 23013KT 9999 BKN009 BKN039 06/06 Q0975
Conditions at: EGGW (LUTON AIRPORT , GB) observed 2050 UTC 12 December 2019
Temperature: 6.0°C (43°F)
Dewpoint: 6.0°C (43°F) [RH = 100%]
Pressure (altimeter): 28.79 inches Hg (975.0 mb)
Winds: from the SW (230 degrees) at 15 MPH (13 knots; 6.7 m/s)
Visibility: 6 or more miles (10+ km)
Ceiling: 900 feet AGL
Clouds: broken clouds at 900 feet AGL
broken clouds at 3900 feet AGL
Weather: no significant weather observed at this time

METAR text: EGGW 122020Z AUTO 25012KT 9999 FEW010 SCT021 BKN026 07/06 Q0975
Conditions at: EGGW (LUTON AIRPORT , GB) observed 2020 UTC 12 December 2019
Temperature: 7.0°C (45°F)
Dewpoint: 6.0°C (43°F) [RH = 93%]
Pressure (altimeter): 28.79 inches Hg (975.0 mb)
Winds: from the WSW (250 degrees) at 14 MPH (12 knots; 6.2 m/s)
Visibility: 6 or more miles (10+ km)
Ceiling: 2600 feet AGL
Clouds: few clouds at 1000 feet AGL
scattered clouds at 2100 feet AGL
broken clouds at 2600 feet AGL
Weather: no significant weather observed at this time

METAR text: EGGW 121950Z AUTO 25012KT 9999 SCT011 OVC018 07/06 Q0976
Conditions at: EGGW (LUTON AIRPORT , GB) observed 1950 UTC 12 December 2019
Temperature: 7.0°C (45°F)
Dewpoint: 6.0°C (43°F) [RH = 93%]
Pressure (altimeter): 28.82 inches Hg (976.0 mb)
Winds: from the WSW (250 degrees) at 14 MPH (12 knots; 6.2 m/s)
Visibility: 6 or more miles (10+ km)
Ceiling: 1800 feet AGL
Clouds: scattered clouds at 1100 feet AGL
overcast cloud deck at 1800 feet AGL
Weather: no significant weather observed at this time

METAR text: EGGW 121920Z AUTO 25011KT 9999 BKN008 BKN013 OVC021 07/07 Q0976
Conditions at: EGGW (LUTON AIRPORT , GB) observed 1920 UTC 12 December 2019
Temperature: 7.0°C (45°F)
Dewpoint: 7.0°C (45°F) [RH = 100%]
Pressure (altimeter): 28.82 inches Hg (976.0 mb)
Winds: from the WSW (250 degrees) at 13 MPH (11 knots; 5.7 m/s)
Visibility: 6 or more miles (10+ km)
Ceiling: 800 feet AGL
Clouds: broken clouds at 800 feet AGL
broken clouds at 1300 feet AGL
overcast cloud deck at 2100 feet AGL
Weather: no significant weather observed at this time

METAR text: EGGW 121850Z 24010KT 9999 -RA BKN007 OVC018 07/07 Q0976
Conditions at: EGGW (LUTON AIRPORT , GB) observed 1850 UTC 12 December 2019
Temperature: 7.0°C (45°F)
Dewpoint: 7.0°C (45°F) [RH = 100%]
Pressure (altimeter): 28.82 inches Hg (976.0 mb)
Winds: from the WSW (240 degrees) at 12 MPH (10 knots; 5.1 m/s)
Visibility: 6 or more miles (10+ km)
Ceiling: 700 feet AGL
Clouds: broken clouds at 700 feet AGL
overcast cloud deck at 1800 feet AGL
Weather: -RA  (light rain)

METAR text: EGGW 121820Z 20011KT 160V220 7000 -RA SCT002 BKN007 OVC010 07/07 Q0977 REDZ
Conditions at: EGGW (LUTON AIRPORT , GB) observed 1820 UTC 12 December 2019
Temperature: 7.0°C (45°F)
Dewpoint: 7.0°C (45°F) [RH = 100%]
Pressure (altimeter): 28.85 inches Hg (977.0 mb)
Winds: from the SSW (200 degrees) at 13 MPH (11 knots; 5.7 m/s)
Visibility: 4 miles ( 7 km)
Ceiling: 700 feet AGL
Clouds: scattered clouds at 200 feet AGL
broken clouds at 700 feet AGL
overcast cloud deck at 1000 feet AGL
Weather: -RA  (light rain)

METAR text: EGGW 121750Z AUTO 20011KT 160V220 5000 -RADZ OVC004/// //////TCU 07/07 Q0977
Conditions at: EGGW (LUTON AIRPORT , GB) observed 1750 UTC 12 December 2019
Temperature: 7.0°C (45°F)
Dewpoint: 7.0°C (45°F) [RH = 100%]
Pressure (altimeter): 28.85 inches Hg (977.0 mb)
Winds: from the SSW (200 degrees) at 13 MPH (11 knots; 5.7 m/s)
Visibility: 3 miles ( 5 km)
Ceiling: 400 feet AGL
Clouds: overcast cloud deck at 400 feet AGL
Weather: -RA -DZ  (light rain, light drizzle)

METAR text: EGGW 121720Z AUTO 17011KT 9999 -RA BKN005/// OVC016/// //////TCU 07/06 Q0977
Conditions at: EGGW (LUTON AIRPORT , GB) observed 1720 UTC 12 December 2019
Temperature: 7.0°C (45°F)
Dewpoint: 6.0°C (43°F) [RH = 93%]
Pressure (altimeter): 28.85 inches Hg (977.0 mb)
Winds: from the S (170 degrees) at 13 MPH (11 knots; 5.7 m/s)
Visibility: 6 or more miles (10+ km)
Ceiling: 500 feet AGL
Clouds: broken clouds at 500 feet AGL
overcast cloud deck at 1600 feet AGL
Weather: -RA  (light rain)

METAR text: EGGW 121650Z AUTO 16011KT 140V200 9999 -RA BKN006/// OVC011/// //////TCU 07/06 Q0978
Conditions at: EGGW (LUTON AIRPORT , GB) observed 1650 UTC 12 December 2019
Temperature: 7.0°C (45°F)
Dewpoint: 6.0°C (43°F) [RH = 93%]
Pressure (altimeter): 28.88 inches Hg (978.0 mb)
Winds: from the SSE (160 degrees) at 13 MPH (11 knots; 5.7 m/s)
Visibility: 6 or more miles (10+ km)
Ceiling: 600 feet AGL
Clouds: broken clouds at 600 feet AGL
overcast cloud deck at 1100 feet AGL
Weather: -RA  (light rain)

METAR text: EGGW 121620Z AUTO 18011KT 9999 -RA BKN007/// OVC045/// //////TCU 07/07 Q0979
Conditions at: EGGW (LUTON AIRPORT , GB) observed 1620 UTC 12 December 2019
Temperature: 7.0°C (45°F)
Dewpoint: 7.0°C (45°F) [RH = 100%]
Pressure (altimeter): 28.91 inches Hg (979.0 mb)
Winds: from the S (180 degrees) at 13 MPH (11 knots; 5.7 m/s)
Visibility: 6 or more miles (10+ km)
Ceiling: 700 feet AGL
Clouds: broken clouds at 700 feet AGL
overcast cloud deck at 4500 feet AGL
Weather: -RA  (light rain)

METAR text: EGGW 121550Z AUTO 18012KT 150V210 9999 -RA BKN008/// BKN016/// OVC042/// //////TCU 07/07 Q0980
Conditions at: EGGW (LUTON AIRPORT , GB) observed 1550 UTC 12 December 2019
Temperature: 7.0°C (45°F)
Dewpoint: 7.0°C (45°F) [RH = 100%]
Pressure (altimeter): 28.94 inches Hg (980.0 mb)
Winds: from the S (180 degrees) at 14 MPH (12 knots; 6.2 m/s)
Visibility: 6 or more miles (10+ km)
Ceiling: 800 feet AGL
Clouds: broken clouds at 800 feet AGL
broken clouds at 1600 feet AGL
overcast cloud deck at 4200 feet AGL
Weather: -RA  (light rain)

METAR text: EGGW 121520Z AUTO 19011KT 150V220 9999 -RA SCT006/// BKN009/// BKN017/// //////TCU 07/07 Q0980
Conditions at: EGGW (LUTON AIRPORT , GB) observed 1520 UTC 12 December 2019
Temperature: 7.0°C (45°F)
Dewpoint: 7.0°C (45°F) [RH = 100%]
Pressure (altimeter): 28.94 inches Hg (980.0 mb)
Winds: from the S (190 degrees) at 13 MPH (11 knots; 5.7 m/s)
Visibility: 6 or more miles (10+ km)
Ceiling: 900 feet AGL
Clouds: scattered clouds at 600 feet AGL
broken clouds at 900 feet AGL
broken clouds at 1700 feet AGL
Weather: -RA  (light rain)

METAR text: EGGW 121450Z AUTO 18012KT 150V210 9999 -RA BKN005/// OVC031/// //////TCU 08/07 Q0981
Conditions at: EGGW (LUTON AIRPORT , GB) observed 1450 UTC 12 December 2019
Temperature: 8.0°C (46°F)
Dewpoint: 7.0°C (45°F) [RH = 93%]
Pressure (altimeter): 28.97 inches Hg (981.0 mb)
Winds: from the S (180 degrees) at 14 MPH (12 knots; 6.2 m/s)
Visibility: 6 or more miles (10+ km)
Ceiling: 500 feet AGL
Clouds: broken clouds at 500 feet AGL
overcast cloud deck at 3100 feet AGL
Weather: -RA  (light rain)

METAR text: EGGW 121420Z AUTO 17012KT 8000 -RA OVC004 08/07 Q0982
Conditions at: EGGW (LUTON AIRPORT , GB) observed 1420 UTC 12 December 2019
Temperature: 8.0°C (46°F)
Dewpoint: 7.0°C (45°F) [RH = 93%]
Pressure (altimeter): 29.00 inches Hg (982.0 mb)
Winds: from the S (170 degrees) at 14 MPH (12 knots; 6.2 m/s)
Visibility: 5 miles ( 8 km)
Ceiling: 400 feet AGL
Clouds: overcast cloud deck at 400 feet AGL
Weather: -RA  (light rain)

METAR text: EGGW 121350Z AUTO 17012KT 4500 -DZ OVC003 07/07 Q0982
Conditions at: EGGW (LUTON AIRPORT , GB) observed 1350 UTC 12 December 2019
Temperature: 7.0°C (45°F)
Dewpoint: 7.0°C (45°F) [RH = 100%]
Pressure (altimeter): 29.00 inches Hg (982.0 mb)
Winds: from the S (170 degrees) at 14 MPH (12 knots; 6.2 m/s)
Visibility: 2.80 miles (4.51 km)
Ceiling: 300 feet AGL
Clouds: overcast cloud deck at 300 feet AGL
Weather: -DZ  (light drizzle)

METAR text: EGGW 121320Z AUTO 17012G23KT 6000 -RA OVC002 07/07 Q0983 REDZ
Conditions at: EGGW (LUTON AIRPORT , GB) observed 1320 UTC 12 December 2019
Temperature: 7.0°C (45°F)
Dewpoint: 7.0°C (45°F) [RH = 100%]
Pressure (altimeter): 29.03 inches Hg (983.0 mb)
Winds: from the S (170 degrees) at 14 MPH (12 knots; 6.2 m/s)
gusting to 26 MPH (23 knots; 11.8 m/s)
Visibility: 4 miles ( 6 km)
Ceiling: 200 feet AGL
Clouds: overcast cloud deck at 200 feet AGL
Weather: -RA  (light rain)

METAR text: EGGW 121250Z AUTO 15010KT 2900 -RADZ OVC003/// //////TCU 06/06 Q0984
Conditions at: EGGW (LUTON AIRPORT , GB) observed 1250 UTC 12 December 2019
Temperature: 6.0°C (43°F)
Dewpoint: 6.0°C (43°F) [RH = 100%]
Pressure (altimeter): 29.06 inches Hg (984.0 mb)
Winds: from the SSE (150 degrees) at 12 MPH (10 knots; 5.1 m/s)
Visibility: 1.80 miles (2.90 km)
Ceiling: 300 feet AGL
Clouds: overcast cloud deck at 300 feet AGL
Weather: -RA -DZ  (light rain, light drizzle)

METAR text: EGGW 121220Z AUTO 15013KT 5000 -RA BKN003/// OVC006/// //////TCU 06/06 Q0985
Conditions at: EGGW (LUTON AIRPORT , GB) observed 1220 UTC 12 December 2019
Temperature: 6.0°C (43°F)
Dewpoint: 6.0°C (43°F) [RH = 100%]
Pressure (altimeter): 29.08 inches Hg (985.0 mb)
Winds: from the SSE (150 degrees) at 15 MPH (13 knots; 6.7 m/s)
Visibility: 3 miles ( 5 km)
Ceiling: 300 feet AGL
Clouds: broken clouds at 300 feet AGL
overcast cloud deck at 600 feet AGL
Weather: -RA  (light rain)

METAR text: EGGW 121150Z 15013KT 5000 -RA BKN004 OVC008 06/05 Q0987
Conditions at: EGGW (LUTON AIRPORT , GB) observed 1150 UTC 12 December 2019
Temperature: 6.0°C (43°F)
Dewpoint: 5.0°C (41°F) [RH = 93%]
Pressure (altimeter): 29.14 inches Hg (987.0 mb)
Winds: from the SSE (150 degrees) at 15 MPH (13 knots; 6.7 m/s)
Visibility: 3 miles ( 5 km)
Ceiling: 400 feet AGL
Clouds: broken clouds at 400 feet AGL
overcast cloud deck at 800 feet AGL
Weather: -RA  (light rain)

METAR text: EGGW 121120Z 16013KT 9999 -RA OVC004CB 06/05 Q0988
Conditions at: EGGW (LUTON AIRPORT , GB) observed 1120 UTC 12 December 2019
Temperature: 6.0°C (43°F)
Dewpoint: 5.0°C (41°F) [RH = 93%]
Pressure (altimeter): 29.17 inches Hg (988.0 mb)
Winds: from the SSE (160 degrees) at 15 MPH (13 knots; 6.7 m/s)
Visibility: 6 or more miles (10+ km)
Ceiling: 400 feet AGL
Clouds: overcast cloud deck at 400 feet AGL
Weather: -RA  (light rain)

METAR text: EGGW 121050Z 15014KT 8000 -RA OVC004 05/05 Q0989
Conditions at: EGGW (LUTON AIRPORT , GB) observed 1050 UTC 12 December 2019
Temperature: 5.0°C (41°F)
Dewpoint: 5.0°C (41°F) [RH = 100%]
Pressure (altimeter): 29.20 inches Hg (989.0 mb)
Winds: from the SSE (150 degrees) at 16 MPH (14 knots; 7.2 m/s)
Visibility: 5 miles ( 8 km)
Ceiling: 400 feet AGL
Clouds: overcast cloud deck at 400 feet AGL
Weather: -RA  (light rain)

METAR text: EGGW 121020Z 15011KT 7000 -RA BKN005 04/04 Q0990
Conditions at: EGGW (LUTON AIRPORT , GB) observed 1020 UTC 12 December 2019
Temperature: 4.0°C (39°F)
Dewpoint: 4.0°C (39°F) [RH = 100%]
Pressure (altimeter): 29.23 inches Hg (990.0 mb)
Winds: from the SSE (150 degrees) at 13 MPH (11 knots; 5.7 m/s)
Visibility: 4 miles ( 7 km)
Ceiling: 500 feet AGL
Clouds: broken clouds at 500 feet AGL
Weather: -RA  (light rain)

METAR text: EGGW 120950Z 15011KT 9000 -RA SCT008 OVC041 04/03 Q0991
Conditions at: EGGW (LUTON AIRPORT , GB) observed 0950 UTC 12 December 2019
Temperature: 4.0°C (39°F)
Dewpoint: 3.0°C (37°F) [RH = 93%]
Pressure (altimeter): 29.26 inches Hg (991.0 mb)
Winds: from the SSE (150 degrees) at 13 MPH (11 knots; 5.7 m/s)
Visibility: 6 miles ( 9 km)
Ceiling: 4100 feet AGL
Clouds: scattered clouds at 800 feet AGL
overcast cloud deck at 4100 feet AGL
Weather: -RA  (light rain)

METAR text: EGGW 120920Z AUTO 15010KT 9999 -RA FEW019/// SCT027/// BKN032/// //////TCU 03/02 Q0992
Conditions at: EGGW (LUTON AIRPORT , GB) observed 0920 UTC 12 December 2019
Temperature: 3.0°C (37°F)
Dewpoint: 2.0°C (36°F) [RH = 93%]
Pressure (altimeter): 29.29 inches Hg (992.0 mb)
Winds: from the SSE (150 degrees) at 12 MPH (10 knots; 5.1 m/s)
Visibility: 6 or more miles (10+ km)
Ceiling: 3200 feet AGL
Clouds: few clouds at 1900 feet AGL
scattered clouds at 2700 feet AGL
broken clouds at 3200 feet AGL
Weather: -RA  (light rain)

METAR text: EGGW 120850Z AUTO 15009KT 9999 -RA FEW023 BKN032 BKN042 02/02 Q0993
Conditions at: EGGW (LUTON AIRPORT , GB) observed 0850 UTC 12 December 2019
Temperature: 2.0°C (36°F)
Dewpoint: 2.0°C (36°F) [RH = 100%]
Pressure (altimeter): 29.32 inches Hg (993.0 mb)
Winds: from the SSE (150 degrees) at 10 MPH (9 knots; 4.6 m/s)
Visibility: 6 or more miles (10+ km)
Ceiling: 3200 feet AGL
Clouds: few clouds at 2300 feet AGL
broken clouds at 3200 feet AGL
broken clouds at 4200 feet AGL
Weather: -RA  (light rain)

METAR text: EGGW 120820Z AUTO 16008KT 9999 -RA SCT045 02/01 Q0994
Conditions at: EGGW (LUTON AIRPORT , GB) observed 0820 UTC 12 December 2019
Temperature: 2.0°C (36°F)
Dewpoint: 1.0°C (34°F) [RH = 93%]
Pressure (altimeter): 29.35 inches Hg (994.0 mb)
Winds: from the SSE (160 degrees) at 9 MPH (8 knots; 4.1 m/s)
Visibility: 6 or more miles (10+ km)
Ceiling: at least 12,000 feet AGL
Clouds: scattered clouds at 4500 feet AGL
Weather: -RA  (light rain)

METAR text: EGGW 120750Z AUTO 15006KT 9999 NCD 01/01 Q0995
Conditions at: EGGW (LUTON AIRPORT , GB) observed 0750 UTC 12 December 2019
Temperature: 1.0°C (34°F)
Dewpoint: 1.0°C (34°F) [RH = 100%]
Pressure (altimeter): 29.38 inches Hg (995.0 mb)
Winds: from the SSE (150 degrees) at 7 MPH (6 knots; 3.1 m/s)
Visibility: 6 or more miles (10+ km)
Ceiling: at least 12,000 feet AGL
Clouds: sky clear below 12,000 feet AGL
Weather: no significant weather observed at this time

METAR text: EGGW 120720Z AUTO 18007KT 9999 NCD 01/00 Q0996
Conditions at: EGGW (LUTON AIRPORT , GB) observed 0720 UTC 12 December 2019
Temperature: 1.0°C (34°F)
Dewpoint: 0.0°C (32°F) [RH = 93%]
Pressure (altimeter): 29.41 inches Hg (996.0 mb)
Winds: from the S (180 degrees) at 8 MPH (7 knots; 3.6 m/s)
Visibility: 6 or more miles (10+ km)
Ceiling: at least 12,000 feet AGL
Clouds: sky clear below 12,000 feet AGL
Weather: no significant weather observed at this time

METAR text: EGGW 120650Z AUTO 18006KT 150V210 9999 NCD 01/01 Q0996
Conditions at: EGGW (LUTON AIRPORT , GB) observed 0650 UTC 12 December 2019
Temperature: 1.0°C (34°F)
Dewpoint: 1.0°C (34°F) [RH = 100%]
Pressure (altimeter): 29.41 inches Hg (996.0 mb)
Winds: from the S (180 degrees) at 7 MPH (6 knots; 3.1 m/s)
Visibility: 6 or more miles (10+ km)
Ceiling: at least 12,000 feet AGL
Clouds: sky clear below 12,000 feet AGL
Weather: no significant weather observed at this time

METAR text: EGGW 120620Z AUTO 18005KT 9999 NCD 00/00 Q0997
Conditions at: EGGW (LUTON AIRPORT , GB) observed 0620 UTC 12 December 2019
Temperature: 0.0°C (32°F)
Dewpoint: 0.0°C (32°F) [RH = 100%]
Pressure (altimeter): 29.44 inches Hg (997.0 mb)
Winds: from the S (180 degrees) at 6 MPH (5 knots; 2.6 m/s)
Visibility: 6 or more miles (10+ km)
Ceiling: at least 12,000 feet AGL
Clouds: sky clear below 12,000 feet AGL
Weather: no significant weather observed at this time

METAR text: EGGW 120550Z AUTO 18006KT 9999 NCD 00/00 Q0998
Conditions at: EGGW (LUTON AIRPORT , GB) observed 0550 UTC 12 December 2019
Temperature: 0.0°C (32°F)
Dewpoint: 0.0°C (32°F) [RH = 100%]
Pressure (altimeter): 29.47 inches Hg (998.0 mb)
Winds: from the S (180 degrees) at 7 MPH (6 knots; 3.1 m/s)
Visibility: 6 or more miles (10+ km)
Ceiling: at least 12,000 feet AGL
Clouds: sky clear below 12,000 feet AGL
Weather: no significant weather observed at this time

METAR text: EGGW 120520Z AUTO 19006KT 8000 FEW003 00/00 Q0998
Conditions at: EGGW (LUTON AIRPORT , GB) observed 0520 UTC 12 December 2019
Temperature: 0.0°C (32°F)
Dewpoint: 0.0°C (32°F) [RH = 100%]
Pressure (altimeter): 29.47 inches Hg (998.0 mb)
Winds: from the S (190 degrees) at 7 MPH (6 knots; 3.1 m/s)
Visibility: 5 miles ( 8 km)
Ceiling: at least 12,000 feet AGL
Clouds: few clouds at 300 feet AGL
Weather: no significant weather observed at this time

METAR text: EGGW 120450Z AUTO 18007KT 7000 NCD 00/00 Q0999
Conditions at: EGGW (LUTON AIRPORT , GB) observed 0450 UTC 12 December 2019
Temperature: 0.0°C (32°F)
Dewpoint: 0.0°C (32°F) [RH = 100%]
Pressure (altimeter): 29.50 inches Hg (999.0 mb)
Winds: from the S (180 degrees) at 8 MPH (7 knots; 3.6 m/s)
Visibility: 4 miles ( 7 km)
Ceiling: at least 12,000 feet AGL
Clouds: sky clear below 12,000 feet AGL
Weather: no significant weather observed at this time

METAR text: EGGW 120420Z AUTO 19007KT 9999 NCD 00/00 Q0999
Conditions at: EGGW (LUTON AIRPORT , GB) observed 0420 UTC 12 December 2019
Temperature: 0.0°C (32°F)
Dewpoint: 0.0°C (32°F) [RH = 100%]
Pressure (altimeter): 29.50 inches Hg (999.0 mb)
Winds: from the S (190 degrees) at 8 MPH (7 knots; 3.6 m/s)
Visibility: 6 or more miles (10+ km)
Ceiling: at least 12,000 feet AGL
Clouds: sky clear below 12,000 feet AGL
Weather: no significant weather observed at this time

METAR text: EGGW 120350Z AUTO 18005KT 9999 NCD 01/01 Q1000
Conditions at: EGGW (LUTON AIRPORT , GB) observed 0350 UTC 12 December 2019
Temperature: 1.0°C (34°F)
Dewpoint: 1.0°C (34°F) [RH = 100%]
Pressure (altimeter): 29.53 inches Hg (1000.0 mb)
Winds: from the S (180 degrees) at 6 MPH (5 knots; 2.6 m/s)
Visibility: 6 or more miles (10+ km)
Ceiling: at least 12,000 feet AGL
Clouds: sky clear below 12,000 feet AGL
Weather: no significant weather observed at this time

METAR text: EGGW 120320Z AUTO 18004KT 9999 NCD M00/M00 Q1000
Conditions at: EGGW (LUTON AIRPORT , GB) observed 0320 UTC 12 December 2019
Temperature: 0.0°C (32°F)
Dewpoint: 0.0°C (32°F) [RH = 100%]
Pressure (altimeter): 29.53 inches Hg (1000.0 mb)
Winds: from the S (180 degrees) at 5 MPH (4 knots; 2.1 m/s)
Visibility: 6 or more miles (10+ km)
Ceiling: at least 12,000 feet AGL
Clouds: sky clear below 12,000 feet AGL
Weather: no significant weather observed at this time

METAR text: EGGW 120250Z AUTO 18005KT 9999 NCD M00/M00 Q1000
Conditions at: EGGW (LUTON AIRPORT , GB) observed 0250 UTC 12 December 2019
Temperature: 0.0°C (32°F)
Dewpoint: 0.0°C (32°F) [RH = 100%]
Pressure (altimeter): 29.53 inches Hg (1000.0 mb)
Winds: from the S (180 degrees) at 6 MPH (5 knots; 2.6 m/s)
Visibility: 6 or more miles (10+ km)
Ceiling: at least 12,000 feet AGL
Clouds: sky clear below 12,000 feet AGL
Weather: no significant weather observed at this time

Forecast for: EGGW (LUTON AIRPORT , GB)
Text: TAF EGGW 131103Z 1312/1412 27015KT 9999 SCT020
Forecast period: 1200 UTC 13 December 2019 to 1200 UTC 14 December 2019
Forecast type: FROM: standard forecast or significant change
Winds: from the W (270 degrees) at 17 MPH (15 knots; 7.7 m/s)
Visibility: 6 or more miles 10+ km)
Ceiling: at least 12,000 feet AGL
Clouds: scattered clouds at 2000 feet AGL
Weather: no significant weather forecast for this period
Text: TEMPO 1312/1412 28018G28KT
Forecast period: 1200 UTC 13 December 2019 to 1200 UTC 14 December 2019
Forecast type: TEMPORARY: The following changes expected for less than half the time period
Winds: from the W (280 degrees) at 21 MPH (18 knots; 9.3 m/s)
gusting to 32 MPH (28 knots; 14.4 m/s)
Visibility: missing
Ceiling: unknown
Clouds: missing
Weather: no significant weather forecast for this period
Text: TEMPO 1409/1412 8000 SHRA BKN012
Forecast period: 0900 to 1200 UTC 14 December 2019
Forecast type: TEMPORARY: The following changes expected for less than half the time period
Visibility: 5 miles (8 km)
Ceiling: 1200 feet AGL
Clouds: broken clouds at 1200 feet AGL
Weather: SHRA  (rain showers)
Text: PROB30
Forecast period: 0900 to 1200 UTC 14 December 2019
Forecast type: TEMPORARY: The following changes expected for less than half the time period
Visibility: missing
Ceiling: 600 feet AGL
Clouds: broken clouds at 600 feet AGL
Weather: no significant weather forecast for this period